Current Conditions
Partly Cloudy
Conditions



Pressure
985.92 (hPa) - 29.11 (inHG)
Visibility

7.0 (km) - 4.3 (miles)
   Temperature
4  °C
39°F
3  °C
Dewpoint
93  %
 Humidity
   Wind Speed
29  km/h
16  kts
18  mph
8.0  m/s
   Wind Direction
 240°
West South
West
   Airport Data
EHGG
Location Eelde 47 km (29.21 mi)
Metar :EHGG 281025Z AUTO 24016KT 210V270 7000 +DZ FEW007 BKN008 BKN010 04/03 Q0986 TEMPO 9999 -SHRA FEW018CB
Tue 28th January 12:25 pm
   Raw Metar Info
Raw METAR is the most common format in the world for the transmission of observational weather data. It is highly standardized through the International Civil Aviation Organization (ICAO), which allows it to be understood throughout most of the world.
   API Info
Data Provided by
https://www.checkwx.com/weather/EHGG
   © Info
CSS/SVG/PHP scripts were developed by weather34.com for use in the weather34 template © 2015-2020

Guide Info provided by Metar-Wikipedia